Terminal Aerodrome Forecast
Issued by NWS Duluth, MN

Home | Current Version | Previous Version | Text Only | Print | Product List | Glossary On
Versions: 1 2 3 4 5 6 7 8 9 10 11 12 13 14 15 16 17 18 19 20 21
729
FTUS43 KDLH 252340
TAFINL
TAF
KINL 252340Z 2600/2624 05010G19KT P6SM OVC013
     FM260600 04015G25KT P6SM VCSH OVC017
     FM261400 03014G23KT 5SM -SN BR OVC010
     FM261500 03014G23KT 1SM -SN BR OVC008
     FM262300 03012G20KT 3SM -SN BR OVC015=

USA.gov is the U.S. government's official web portal to all federal, state and local government web resources and services.